createdAt,value
2018-11-14T00:00:25.810Z,4.73
2018-11-14T00:02:54.378Z,4.20
2018-11-14T00:05:22.884Z,4.30
2018-11-14T00:07:51.395Z,3.83
2018-11-14T00:10:20.358Z,4.33
2018-11-14T00:12:48.482Z,4.90
2018-11-14T00:15:18.302Z,5.00
2018-11-14T00:17:47.641Z,4.30
2018-11-14T00:20:16.166Z,4.23
2018-11-14T00:22:45.898Z,4.20
2018-11-14T00:25:14.530Z,4.33
2018-11-14T00:27:43.129Z,4.53
2018-11-14T00:30:14.211Z,7.73
2018-11-14T00:32:43.181Z,9.87
2018-11-14T00:35:12.395Z,5.33
2018-11-14T00:37:41.521Z,6.03
2018-11-14T00:40:11.821Z,9.70
2018-11-14T00:42:40.717Z,6.53
2018-11-14T00:45:11.263Z,10.20
2018-11-14T00:47:39.860Z,7.93
2018-11-14T00:50:09.213Z,8.57
2018-11-14T00:52:37.777Z,7.80
2018-11-14T00:55:08.704Z,12.13
2018-11-14T00:57:37.191Z,12.03
2018-11-14T01:00:08.737Z,8.57
2018-11-14T01:02:38.256Z,10.50
2018-11-14T01:05:07.765Z,8.53
2018-11-14T01:07:36.423Z,8.73
2018-11-14T01:10:06.508Z,8.90
2018-11-14T01:12:35.136Z,10.00
2018-11-14T01:15:03.903Z,8.30
2018-11-14T01:17:32.385Z,8.10
2018-11-14T01:20:00.908Z,6.70
2018-11-14T01:22:30.965Z,8.23
2018-11-14T01:24:59.588Z,9.10
2018-11-14T01:27:28.064Z,7.77
2018-11-14T01:29:56.571Z,8.57
2018-11-14T01:32:25.048Z,7.97
2018-11-14T01:34:53.536Z,10.50
2018-11-14T01:37:22.179Z,14.40
2018-11-14T01:39:50.699Z,10.33
2018-11-14T01:42:19.274Z,8.63
2018-11-14T01:44:47.951Z,11.77
2018-11-14T01:47:16.446Z,15.03
2018-11-14T01:49:45.076Z,9.93
2018-11-14T01:52:13.619Z,9.47
2018-11-14T01:54:42.132Z,10.07
2018-11-14T01:57:10.669Z,10.80
2018-11-14T01:59:39.172Z,9.00
2018-11-14T02:02:07.948Z,7.83
2018-11-14T02:04:36.747Z,6.20
2018-11-14T02:07:05.520Z,5.10
2018-11-14T02:09:34.023Z,4.43
2018-11-14T02:12:02.492Z,5.10
2018-11-14T02:14:31.096Z,5.03
2018-11-14T02:16:59.552Z,4.60
2018-11-14T02:19:28.005Z,4.90
2018-11-14T02:21:56.602Z,4.63
2018-11-14T02:24:25.053Z,5.10
2018-11-14T02:26:53.858Z,5.70
2018-11-14T02:29:22.507Z,4.93
2018-11-14T02:31:51.068Z,4.17
2018-11-14T02:34:19.604Z,5.20
2018-11-14T02:36:48.096Z,5.17
2018-11-14T02:39:16.731Z,5.37
2018-11-14T02:41:45.237Z,4.60
2018-11-14T02:44:13.754Z,5.07
2018-11-14T02:46:42.470Z,6.33
2018-11-14T02:49:10.961Z,4.77
2018-11-14T02:51:39.598Z,4.73
2018-11-14T02:54:08.067Z,5.70
2018-11-14T02:56:36.562Z,4.50
2018-11-14T02:59:05.195Z,4.70
2018-11-14T03:01:33.660Z,5.00
2018-11-14T03:05:26.794Z,4.37
2018-11-14T03:07:55.494Z,4.47
2018-11-14T03:10:23.963Z,5.50
2018-11-14T03:12:52.506Z,4.60
2018-11-14T03:15:22.219Z,4.53
2018-11-14T03:17:50.724Z,4.40
2018-11-14T03:20:20.300Z,4.33
2018-11-14T03:22:48.785Z,4.13
2018-11-14T03:25:17.370Z,5.10
2018-11-14T03:27:46.095Z,4.93
2018-11-14T03:30:16.836Z,5.30
2018-11-14T03:32:45.819Z,4.97
2018-11-14T03:35:14.891Z,4.50
2018-11-14T03:37:43.607Z,4.67
2018-11-14T03:40:13.819Z,5.20
2018-11-14T03:42:42.374Z,4.83
2018-11-14T03:45:12.428Z,4.37
2018-11-14T03:47:41.497Z,5.83
2018-11-14T03:50:10.435Z,4.37
2018-11-14T03:52:39.186Z,4.50
2018-11-14T03:55:07.734Z,4.63
2018-11-14T03:57:36.420Z,5.03
2018-11-14T04:00:08.398Z,5.30
2018-11-14T04:02:36.908Z,5.37
2018-11-14T04:05:06.309Z,5.60
2018-11-14T04:07:34.899Z,4.80
2018-11-14T04:10:03.781Z,5.23
2018-11-14T04:12:32.289Z,5.03
2018-11-14T04:15:00.792Z,5.03
2018-11-14T04:17:29.334Z,4.80
2018-11-14T04:19:58.232Z,5.07
2018-11-14T04:22:26.774Z,5.77
2018-11-14T04:24:55.274Z,5.33
2018-11-14T04:27:23.792Z,5.37
2018-11-14T04:29:52.383Z,5.23
2018-11-14T04:32:20.917Z,4.87
2018-11-14T04:34:49.403Z,4.90
2018-11-14T04:37:17.885Z,5.13
2018-11-14T04:39:46.416Z,5.60
2018-11-14T04:42:15.124Z,4.97
2018-11-14T04:44:43.655Z,5.20
2018-11-14T04:47:12.160Z,4.60
2018-11-14T04:49:40.691Z,4.47
2018-11-14T04:52:09.211Z,5.00
2018-11-14T04:54:38.014Z,5.07
2018-11-14T04:57:06.552Z,5.00
2018-11-14T04:59:35.069Z,5.63
2018-11-14T05:02:03.645Z,4.67
2018-11-14T05:04:32.265Z,4.63
2018-11-14T05:07:00.782Z,4.90
2018-11-14T05:09:29.344Z,5.10
2018-11-14T05:11:58.201Z,4.80
2018-11-14T05:14:26.678Z,5.70
2018-11-14T05:16:55.115Z,5.20
2018-11-14T05:19:23.724Z,5.13
2018-11-14T05:21:52.241Z,5.63
2018-11-14T05:24:20.779Z,5.60
2018-11-14T05:26:49.245Z,5.10
2018-11-14T05:29:17.775Z,4.63
2018-11-14T05:31:46.390Z,4.90
2018-11-14T05:34:14.942Z,4.87
2018-11-14T05:36:43.449Z,5.10
2018-11-14T05:39:12.823Z,4.93
2018-11-14T05:41:41.404Z,4.87
2018-11-14T05:44:10.086Z,4.90
2018-11-14T05:46:38.681Z,4.93
2018-11-14T05:49:07.372Z,5.33
2018-11-14T05:51:35.871Z,5.63
2018-11-14T05:54:04.539Z,4.63
2018-11-14T05:56:33.278Z,5.30
2018-11-14T05:59:03.990Z,5.33
2018-11-14T06:01:32.514Z,4.93
2018-11-14T06:04:01.077Z,5.87
2018-11-14T06:06:29.602Z,5.40
2018-11-14T06:08:58.176Z,5.33
2018-11-14T06:11:26.727Z,5.47
2018-11-14T06:13:55.476Z,6.00
2018-11-14T06:16:32.971Z,5.33
2018-11-14T06:19:02.905Z,5.57
2018-11-14T06:21:31.513Z,5.00
2018-11-14T06:24:00.121Z,5.40
2018-11-14T06:26:32.775Z,5.47
2018-11-14T06:29:01.684Z,5.43
2018-11-14T06:31:30.332Z,4.97
2018-11-14T06:33:58.902Z,5.73
2018-11-14T06:36:27.396Z,4.57
2018-11-14T06:38:55.964Z,4.67
2018-11-14T06:41:24.561Z,6.03
2018-11-14T06:43:53.304Z,4.83
2018-11-14T06:46:21.744Z,5.40
2018-11-14T06:48:50.287Z,5.20
2018-11-14T06:51:18.820Z,6.00
2018-11-14T06:53:47.390Z,5.20
2018-11-14T06:56:15.991Z,5.40
2018-11-14T06:58:44.598Z,5.27
2018-11-14T07:01:13.179Z,5.30
2018-11-14T07:03:41.768Z,4.87
2018-11-14T07:06:10.504Z,4.93
2018-11-14T07:08:39.025Z,5.20
2018-11-14T07:11:07.608Z,4.90
2018-11-14T07:13:37.543Z,4.40
2018-11-14T07:16:07.193Z,4.90
2018-11-14T07:18:36.300Z,4.50
2018-11-14T07:21:04.932Z,4.43
2018-11-14T07:23:33.936Z,4.97
2018-11-14T07:26:08.817Z,5.20
2018-11-14T07:28:37.875Z,5.83
2018-11-14T07:31:06.459Z,4.93
2018-11-14T07:33:34.992Z,5.03
2018-11-14T07:36:03.506Z,6.07
2018-11-14T07:38:35.528Z,4.60
2018-11-14T07:41:06.193Z,4.60
2018-11-14T07:43:37.452Z,4.90
2018-11-14T07:46:06.643Z,5.00
2018-11-14T07:48:44.260Z,4.93
2018-11-14T07:51:23.168Z,4.70
2018-11-14T07:54:23.216Z,5.97
2018-11-14T07:56:52.143Z,4.47
2018-11-14T07:59:25.755Z,5.00
2018-11-14T08:01:55.635Z,5.40
2018-11-14T08:04:27.379Z,5.63
2018-11-14T08:07:00.858Z,5.47
2018-11-14T08:09:36.599Z,4.77
2018-11-14T08:12:05.714Z,4.20
2018-11-14T08:14:51.808Z,4.03
2018-11-14T08:17:41.926Z,4.60
2018-11-14T08:20:23.318Z,4.60
2018-11-14T08:22:53.088Z,4.10
2018-11-14T08:25:21.873Z,4.13
2018-11-14T08:27:50.871Z,4.97
2018-11-14T08:30:20.574Z,5.37
2018-11-14T08:32:49.057Z,4.50
2018-11-14T08:35:17.847Z,5.47
2018-11-14T08:37:47.396Z,4.33
2018-11-14T08:40:15.900Z,4.23
2018-11-14T08:42:44.438Z,3.97
2018-11-14T08:45:13.114Z,5.83
2018-11-14T08:47:42.162Z,4.13
2018-11-14T08:50:15.313Z,5.90
2018-11-14T08:52:44.272Z,4.47
2018-11-14T08:55:13.721Z,4.87
2018-11-14T08:57:43.784Z,4.70
2018-11-14T09:00:15.228Z,4.63
2018-11-14T09:02:44.662Z,4.80
2018-11-14T09:05:13.169Z,5.00
2018-11-14T09:07:41.692Z,4.77
2018-11-14T09:10:13.060Z,4.70
2018-11-14T09:12:41.965Z,5.73
2018-11-14T09:15:12.546Z,5.77
2018-11-14T09:17:41.176Z,5.40
2018-11-14T09:20:13.476Z,5.27
2018-11-14T09:22:42.465Z,6.07
2018-11-14T09:25:12.932Z,5.10
2018-11-14T09:27:41.953Z,5.17
2018-11-14T09:30:15.869Z,5.03
2018-11-14T09:32:44.417Z,5.07
2018-11-14T09:35:15.083Z,4.63
2018-11-14T09:37:43.756Z,5.60
2018-11-14T09:40:13.939Z,4.73
2018-11-14T09:42:42.496Z,4.83
2018-11-14T09:45:13.274Z,4.73
2018-11-14T09:47:42.323Z,4.53
2018-11-14T09:50:22.722Z,4.60
2018-11-14T09:52:53.321Z,4.67
2018-11-14T09:55:21.947Z,4.80
2018-11-14T09:57:50.619Z,5.00
2018-11-14T10:00:21.195Z,4.50
2018-11-14T10:02:52.638Z,5.07
2018-11-14T10:05:22.870Z,5.00
2018-11-14T10:07:51.506Z,5.00
2018-11-14T10:10:21.219Z,4.43
2018-11-14T10:12:50.582Z,4.30
2018-11-14T10:15:21.635Z,4.17
2018-11-14T10:19:15.561Z,4.53
2018-11-14T10:21:44.770Z,5.77
2018-11-14T10:24:13.407Z,5.10
2018-11-14T10:26:42.178Z,5.17
2018-11-14T10:29:10.802Z,5.53
2018-11-14T10:31:39.816Z,5.77
2018-11-14T10:34:09.045Z,4.57
2018-11-14T10:36:37.667Z,5.93
2018-11-14T10:39:09.575Z,5.70
2018-11-14T10:43:02.697Z,5.20
2018-11-14T10:45:31.291Z,5.23
2018-11-14T10:47:59.831Z,3.80
2018-11-14T10:50:29.160Z,4.37
2018-11-14T10:52:59.541Z,4.60
2018-11-14T10:55:28.130Z,3.73
2018-11-14T10:57:58.428Z,3.60
2018-11-14T11:00:32.555Z,3.93
2018-11-14T11:03:07.170Z,4.53
2018-11-14T11:05:41.886Z,3.17
2018-11-14T11:08:15.924Z,4.23
2018-11-14T11:10:52.551Z,4.57
2018-11-14T11:13:27.259Z,4.13
2018-11-14T11:16:01.083Z,3.93
2018-11-14T11:18:31.624Z,3.60
2018-11-14T11:21:00.179Z,3.93
2018-11-14T11:23:32.861Z,4.10
2018-11-14T11:26:02.394Z,4.10
2018-11-14T11:28:32.683Z,3.90
2018-11-14T11:31:01.414Z,4.03
2018-11-14T11:33:31.209Z,4.60
2018-11-14T11:35:59.808Z,4.03
2018-11-14T11:38:28.450Z,4.07
2018-11-14T11:40:56.984Z,4.03
2018-11-14T11:43:26.128Z,3.70
2018-11-14T11:45:55.694Z,3.90
2018-11-14T11:48:24.260Z,3.70
2018-11-14T11:50:53.830Z,3.47
2018-11-14T11:53:22.396Z,3.70
2018-11-14T11:55:50.943Z,3.67
2018-11-14T11:58:19.484Z,3.47
2018-11-14T12:00:48.630Z,4.77
2018-11-14T12:03:18.853Z,4.10
2018-11-14T12:05:50.826Z,3.50
2018-11-14T12:08:20.396Z,2.93
2018-11-14T12:10:49.031Z,3.00
2018-11-14T12:13:17.573Z,3.30
2018-11-14T12:15:46.213Z,2.53
2018-11-14T12:18:16.974Z,3.10
2018-11-14T12:20:45.893Z,3.20
2018-11-14T12:23:14.415Z,3.23
2018-11-14T12:25:43.704Z,3.77
2018-11-14T12:28:12.330Z,3.23
2018-11-14T12:30:40.913Z,3.07
2018-11-14T12:33:09.597Z,3.27
2018-11-14T12:35:38.374Z,3.33
2018-11-14T12:38:07.265Z,3.20
2018-11-14T12:40:35.976Z,3.23
2018-11-14T12:43:04.665Z,3.10
2018-11-14T12:45:33.535Z,3.30
2018-11-14T12:48:02.191Z,2.70
2018-11-14T12:50:30.840Z,3.40
2018-11-14T12:52:59.474Z,2.97
2018-11-14T12:55:28.062Z,2.40
2018-11-14T12:57:56.785Z,3.40
2018-11-14T13:00:25.808Z,2.93
2018-11-14T13:02:54.707Z,2.43
2018-11-14T13:05:23.564Z,3.50
2018-11-14T13:07:53.376Z,2.80
2018-11-14T13:10:22.420Z,2.40
2018-11-14T13:12:51.566Z,2.77
2018-11-14T13:15:22.835Z,2.83
2018-11-14T13:17:57.040Z,2.57
2018-11-14T13:20:34.318Z,2.37
2018-11-14T13:23:09.360Z,3.03
2018-11-14T13:25:39.667Z,2.77
2018-11-14T13:28:08.257Z,2.90
2018-11-14T13:30:36.946Z,2.50
2018-11-14T13:33:12.489Z,2.60
2018-11-14T13:35:41.670Z,3.30
2018-11-14T13:38:13.637Z,3.03
2018-11-14T13:40:47.902Z,3.70
2018-11-14T13:43:16.554Z,4.13
2018-11-14T13:45:45.124Z,2.50
2018-11-14T13:48:13.711Z,2.53
2018-11-14T13:50:42.490Z,2.83
2018-11-14T13:53:11.227Z,2.50
2018-11-14T13:55:40.702Z,2.57
2018-11-14T13:58:09.400Z,2.70
2018-11-14T14:00:37.949Z,3.20
2018-11-14T14:03:07.074Z,2.60
2018-11-14T14:05:35.808Z,3.80
2018-11-14T14:08:05.494Z,3.30
2018-11-14T14:10:34.037Z,3.90
2018-11-14T14:13:02.553Z,3.80
2018-11-14T14:15:31.161Z,3.73
2018-11-14T14:17:59.696Z,2.80
2018-11-14T14:20:32.163Z,5.00
2018-11-14T14:23:05.484Z,2.37
2018-11-14T14:25:35.228Z,2.93
2018-11-14T14:28:04.179Z,2.80
2018-11-14T14:30:32.795Z,3.23
2018-11-14T14:33:02.033Z,3.10
2018-11-14T14:35:35.463Z,3.93
2018-11-14T14:38:04.750Z,4.10
2018-11-14T14:40:33.732Z,3.87
2018-11-14T14:43:04.989Z,4.30
2018-11-14T14:45:33.969Z,4.23
2018-11-14T14:48:02.455Z,3.60
2018-11-14T14:50:31.291Z,4.03
2018-11-14T14:53:09.012Z,3.20
2018-11-14T14:55:40.374Z,4.10
2018-11-14T14:58:10.289Z,3.47
2018-11-14T15:00:38.850Z,4.07
2018-11-14T15:03:07.570Z,4.27
2018-11-14T15:05:36.175Z,3.40
2018-11-14T15:08:04.828Z,3.90
2018-11-14T15:10:38.072Z,3.70
2018-11-14T15:13:14.024Z,5.57
2018-11-14T15:15:43.507Z,4.77
2018-11-14T15:18:11.983Z,5.03
2018-11-14T15:20:40.641Z,4.53
2018-11-14T15:23:14.857Z,4.73
2018-11-14T15:25:43.825Z,5.07
2018-11-14T15:28:12.400Z,5.13
2018-11-14T15:30:41.731Z,4.77
2018-11-14T15:33:10.758Z,5.47
2018-11-14T15:35:39.436Z,4.90
2018-11-14T15:38:08.008Z,6.47
2018-11-14T15:40:36.785Z,6.47
2018-11-14T15:43:05.541Z,5.57
2018-11-14T15:45:38.100Z,5.13
2018-11-14T15:48:06.676Z,6.67
2018-11-14T15:50:35.285Z,6.57
2018-11-14T15:53:03.959Z,7.80
2018-11-14T15:55:32.486Z,7.03
2018-11-14T15:58:02.778Z,6.60
2018-11-14T16:00:32.855Z,7.57
2018-11-14T16:03:01.464Z,7.47
2018-11-14T16:05:31.070Z,8.00
2018-11-14T16:08:01.404Z,8.00
2018-11-14T16:10:30.962Z,6.33
2018-11-14T16:12:59.489Z,7.80
2018-11-14T16:15:29.652Z,6.83
2018-11-14T16:17:58.251Z,8.17
2018-11-14T16:20:27.356Z,6.57
2018-11-14T16:22:55.972Z,7.47
2018-11-14T16:25:25.690Z,7.87
2018-11-14T16:27:58.358Z,6.80
2018-11-14T16:30:28.343Z,7.43
2018-11-14T16:32:58.242Z,8.60
2018-11-14T16:35:27.099Z,7.50
2018-11-14T16:37:55.815Z,8.50
2018-11-14T16:40:25.445Z,8.40
2018-11-14T16:42:55.921Z,9.07
2018-11-14T16:45:24.685Z,7.33
2018-11-14T16:47:53.273Z,8.63
2018-11-14T16:50:22.803Z,8.70
2018-11-14T16:52:51.290Z,7.33
2018-11-14T16:55:20.726Z,10.63
2018-11-14T16:57:50.470Z,9.00
2018-11-14T17:00:22.480Z,10.23
2018-11-14T17:02:51.060Z,11.23
2018-11-14T17:05:20.385Z,15.57
2018-11-14T17:07:50.231Z,13.60
2018-11-14T17:10:19.945Z,10.57
2018-11-14T17:12:49.503Z,11.03
2018-11-14T17:15:19.440Z,9.77
2018-11-14T17:17:52.917Z,22.83
2018-11-14T17:20:22.032Z,21.67
2018-11-14T17:22:52.235Z,19.50
2018-11-14T17:25:20.920Z,11.73
2018-11-14T17:27:51.269Z,10.87
2018-11-14T17:30:21.841Z,12.67
2018-11-14T17:32:50.528Z,13.77
2018-11-14T17:35:19.268Z,12.00
2018-11-14T17:37:47.892Z,12.47
2018-11-14T17:40:23.772Z,15.20
2018-11-14T17:42:53.053Z,16.93
2018-11-14T17:45:23.586Z,19.17
2018-11-14T17:47:52.684Z,36.53
2018-11-14T17:50:23.911Z,26.80
2018-11-14T17:52:53.193Z,17.43
2018-11-14T17:55:25.346Z,17.07
2018-11-14T17:57:54.262Z,17.70
2018-11-14T18:00:24.169Z,25.23
2018-11-14T18:02:52.778Z,20.40
2018-11-14T18:05:22.629Z,18.97
2018-11-14T18:07:52.434Z,19.27
2018-11-14T18:10:23.234Z,19.80
2018-11-14T18:12:53.091Z,18.17
2018-11-14T18:15:21.745Z,18.93
2018-11-14T18:17:55.043Z,15.43
2018-11-14T18:20:24.976Z,14.73
2018-11-14T18:22:54.113Z,21.03
2018-11-14T18:25:22.732Z,17.70
2018-11-14T18:27:51.213Z,23.43
2018-11-14T18:30:21.451Z,19.50
2018-11-14T18:32:50.332Z,17.60
2018-11-14T18:35:20.008Z,15.37
2018-11-14T18:37:49.288Z,19.53
2018-11-14T18:40:19.288Z,14.93
2018-11-14T18:42:48.156Z,17.63
2018-11-14T18:45:22.031Z,15.07
2018-11-14T18:47:50.796Z,18.50
2018-11-14T18:50:20.112Z,14.73
2018-11-14T18:52:49.062Z,16.27
2018-11-14T18:55:18.754Z,16.07
2018-11-14T18:57:47.639Z,13.80
2018-11-14T19:00:18.581Z,13.63
2018-11-14T19:02:47.091Z,16.47
2018-11-14T19:05:16.240Z,16.50
2018-11-14T19:07:44.846Z,14.93
2018-11-14T19:10:15.524Z,15.47
2018-11-14T19:12:44.651Z,14.43
2018-11-14T19:15:15.351Z,14.77
2018-11-14T19:17:43.970Z,14.63
2018-11-14T19:20:14.475Z,12.80
2018-11-14T19:22:43.564Z,14.57
2018-11-14T19:25:13.447Z,13.77
2018-11-14T19:27:42.604Z,16.00
2018-11-14T19:30:13.600Z,14.40
2018-11-14T19:32:43.462Z,15.07
2018-11-14T19:35:12.867Z,15.27
2018-11-14T19:37:42.630Z,15.43
2018-11-14T19:40:13.927Z,18.00
2018-11-14T19:42:43.170Z,17.00
2018-11-14T19:45:14.367Z,16.53
2018-11-14T19:47:43.712Z,16.10
2018-11-14T19:50:13.750Z,15.60
2018-11-14T19:52:42.800Z,13.77
2018-11-14T19:55:13.132Z,16.57
2018-11-14T19:57:42.831Z,16.93
2018-11-14T20:00:13.394Z,17.10
2018-11-14T20:02:42.227Z,15.87
2018-11-14T20:05:12.582Z,13.67
2018-11-14T20:07:41.135Z,13.87
2018-11-14T20:10:12.482Z,15.20
2018-11-14T20:12:41.228Z,16.80
2018-11-14T20:15:12.243Z,18.20
2018-11-14T20:17:42.605Z,17.80
2018-11-14T20:20:16.071Z,17.17
2018-11-14T20:22:45.324Z,16.73
2018-11-14T20:25:14.076Z,16.70
2018-11-14T20:27:42.851Z,15.93
2018-11-14T20:30:15.799Z,16.60
2018-11-14T20:32:44.412Z,15.17
2018-11-14T20:35:14.239Z,14.23
2018-11-14T20:37:43.476Z,13.07
2018-11-14T20:40:14.084Z,13.50
2018-11-14T20:42:43.258Z,14.97
2018-11-14T20:45:15.989Z,14.93
2018-11-14T20:47:46.799Z,14.00
2018-11-14T20:50:17.280Z,13.03
2018-11-14T20:52:46.661Z,15.00
2018-11-14T20:55:15.149Z,16.33
2018-11-14T20:57:44.207Z,18.47
2018-11-14T21:00:21.631Z,15.10
2018-11-14T21:02:50.566Z,15.53
2018-11-14T21:05:20.622Z,19.13
2018-11-14T21:07:49.909Z,20.17
2018-11-14T21:10:20.374Z,15.40
2018-11-14T21:12:51.622Z,19.67
2018-11-14T21:15:22.595Z,18.67
2018-11-14T21:17:51.991Z,16.23
2018-11-14T21:20:20.864Z,15.17
2018-11-14T21:22:49.774Z,14.70
2018-11-14T21:25:19.747Z,17.47
2018-11-14T21:27:48.983Z,15.17
2018-11-14T21:30:20.386Z,14.97
2018-11-14T21:32:53.534Z,14.80
2018-11-14T21:35:31.976Z,15.53
2018-11-14T21:38:01.959Z,17.30
2018-11-14T21:40:30.492Z,17.23
2018-11-14T21:42:59.395Z,19.37
2018-11-14T21:45:28.910Z,17.53
2018-11-14T21:48:02.996Z,16.80
2018-11-14T21:50:32.244Z,17.33
2018-11-14T21:53:00.792Z,17.40
2018-11-14T21:55:29.346Z,15.93
2018-11-14T21:57:57.850Z,16.00
2018-11-14T22:00:37.716Z,16.17
2018-11-14T22:03:08.000Z,15.53
2018-11-14T22:05:37.124Z,14.63
2018-11-14T22:08:05.757Z,14.80
2018-11-14T22:10:34.310Z,15.40
2018-11-14T22:13:02.888Z,14.27
2018-11-14T22:15:33.257Z,14.70
2018-11-14T22:18:02.831Z,14.60
2018-11-14T22:20:32.129Z,15.20
2018-11-14T22:23:00.650Z,14.83
2018-11-14T22:25:29.925Z,14.77
2018-11-14T22:27:59.373Z,14.67
2018-11-14T22:30:29.360Z,15.53
2018-11-14T22:32:58.058Z,14.83
2018-11-14T22:35:27.984Z,16.10
2018-11-14T22:37:56.617Z,15.40
2018-11-14T22:40:26.436Z,13.73
2018-11-14T22:42:55.819Z,15.10
2018-11-14T22:45:26.341Z,15.57
2018-11-14T22:47:54.889Z,14.07
2018-11-14T22:50:24.440Z,15.43
2018-11-14T22:52:53.751Z,14.77
2018-11-14T22:55:24.053Z,15.07
2018-11-14T22:57:53.309Z,14.83
2018-11-14T23:00:24.746Z,14.47
2018-11-14T23:02:54.691Z,14.13
2018-11-14T23:05:23.149Z,14.27
2018-11-14T23:07:52.644Z,15.77
2018-11-14T23:10:21.980Z,13.77
2018-11-14T23:12:50.851Z,13.23
2018-11-14T23:15:20.083Z,12.67
2018-11-14T23:17:48.770Z,14.37
2018-11-14T23:20:17.641Z,14.17
2018-11-14T23:22:46.901Z,13.67
2018-11-14T23:25:15.993Z,13.90
2018-11-14T23:27:45.837Z,12.80
2018-11-14T23:30:15.385Z,13.87
2018-11-14T23:32:45.065Z,13.63
2018-11-14T23:35:16.472Z,13.87
2018-11-14T23:37:47.152Z,13.47
2018-11-14T23:40:15.653Z,14.13
2018-11-14T23:42:44.137Z,13.20
2018-11-14T23:45:13.905Z,13.07
2018-11-14T23:47:43.170Z,13.20
2018-11-14T23:50:14.825Z,12.60
2018-11-14T23:52:44.701Z,13.33
2018-11-14T23:55:13.601Z,13.87
2018-11-14T23:57:42.082Z,14.10
